createdAt,value
2018-12-12T00:01:05.422Z,99504.39
2018-12-12T00:02:35.357Z,99507.84
2018-12-12T00:04:05.749Z,99510.03
2018-12-12T00:05:35.692Z,99508.05
2018-12-12T00:07:05.980Z,99510.03
2018-12-12T00:08:36.130Z,99504.97
2018-12-12T00:10:08.413Z,99504.23
2018-12-12T00:11:38.482Z,99503.17
2018-12-12T00:13:08.527Z,99504.42
2018-12-12T00:14:38.480Z,99506.77
2018-12-12T00:16:08.453Z,99503.70
2018-12-12T00:17:38.669Z,99503.89
2018-12-12T00:19:08.740Z,99501.19
2018-12-12T00:20:38.853Z,99498.45
2018-12-12T00:22:08.815Z,99497.37
2018-12-12T00:23:38.755Z,99496.28
2018-12-12T00:25:08.898Z,99496.63
2018-12-12T00:26:38.844Z,99492.64
2018-12-12T00:28:08.782Z,99491.91
2018-12-12T00:29:38.714Z,99490.47
2018-12-12T00:31:08.736Z,99494.25
2018-12-12T00:32:38.939Z,99491.02
2018-12-12T00:34:08.907Z,99492.63
2018-12-12T00:35:38.897Z,99496.63
2018-12-12T00:37:08.824Z,99493.76
2018-12-12T00:38:38.779Z,99493.59
2018-12-12T00:40:08.758Z,99497.03
2018-12-12T00:41:38.732Z,99498.48
2018-12-12T00:43:08.981Z,99485.80
2018-12-12T00:44:38.958Z,99492.11
2018-12-12T00:46:09.034Z,99495.18
2018-12-12T00:47:39.036Z,99493.19
2018-12-12T00:49:09.307Z,99497.17
2018-12-12T00:50:39.255Z,99496.09
2018-12-12T00:52:09.235Z,99502.06
2018-12-12T00:53:39.170Z,99500.99
2018-12-12T00:55:09.239Z,99500.97
2018-12-12T00:56:39.309Z,99492.10
2018-12-12T00:58:09.409Z,99496.45
2018-12-12T00:59:39.439Z,99491.57
2018-12-12T01:01:09.558Z,99490.66
2018-12-12T01:02:39.665Z,99491.94
2018-12-12T01:04:09.707Z,99489.56
2018-12-12T01:05:39.659Z,99488.64
2018-12-12T01:07:09.600Z,99487.75
2018-12-12T01:08:39.531Z,99486.69
2018-12-12T01:10:09.490Z,99490.29
2018-12-12T01:13:27.946Z,99495.36
2018-12-12T01:14:58.035Z,99491.03
2018-12-12T01:16:28.030Z,99483.61
2018-12-12T01:17:57.987Z,99482.34
2018-12-12T01:19:28.097Z,99478.70
2018-12-12T01:20:58.178Z,99478.34
2018-12-12T01:22:28.129Z,99483.05
2018-12-12T01:23:58.080Z,99482.88
2018-12-12T01:25:28.042Z,99492.28
2018-12-12T01:26:57.987Z,99489.22
2018-12-12T01:28:27.923Z,99493.73
2018-12-12T01:29:57.860Z,99487.39
2018-12-12T01:31:27.947Z,99489.05
2018-12-12T01:32:57.931Z,99486.85
2018-12-12T01:34:28.186Z,99487.56
2018-12-12T01:35:58.161Z,99486.87
2018-12-12T01:37:28.326Z,99486.30
2018-12-12T01:38:58.278Z,99487.21
2018-12-12T01:40:28.343Z,99491.75
2018-12-12T01:41:58.547Z,99493.22
2018-12-12T01:43:28.563Z,99494.28
2018-12-12T01:44:58.518Z,99489.75
2018-12-12T01:46:28.597Z,99498.81
2018-12-12T01:47:58.573Z,99493.72
2018-12-12T01:49:28.559Z,99493.91
2018-12-12T01:50:58.520Z,99495.36
2018-12-12T01:52:28.562Z,99498.27
2018-12-12T01:53:58.511Z,99498.63
2018-12-12T01:55:28.707Z,99500.63
2018-12-12T01:56:58.738Z,99495.02
2018-12-12T01:58:28.735Z,99500.63
2018-12-12T01:59:58.656Z,99505.17
2018-12-12T02:01:28.615Z,99499.75
2018-12-12T02:02:58.568Z,99500.44
2018-12-12T02:04:28.517Z,99495.58
2018-12-12T02:05:58.474Z,99504.25
2018-12-12T02:07:28.443Z,99508.77
2018-12-12T02:08:58.527Z,99510.23
2018-12-12T02:10:28.512Z,99511.67
2018-12-12T02:11:58.786Z,99510.23
2018-12-12T02:13:35.601Z,99513.66
2018-12-12T02:15:05.912Z,99508.25
2018-12-12T02:16:35.888Z,99501.70
2018-12-12T02:18:05.962Z,99504.98
2018-12-12T02:19:36.043Z,99504.98
2018-12-12T02:21:06.159Z,99504.05
2018-12-12T02:22:36.268Z,99502.62
2018-12-12T02:24:06.387Z,99504.25
2018-12-12T02:25:36.495Z,99500.84
2018-12-12T02:27:06.483Z,99504.64
2018-12-12T02:28:36.576Z,99509.14
2018-12-12T02:30:07.169Z,99509.16
2018-12-12T02:31:44.732Z,99505.73
2018-12-12T02:33:14.703Z,99503.89
2018-12-12T02:34:44.763Z,99511.32
2018-12-12T02:36:14.863Z,99507.16
2018-12-12T02:37:44.879Z,99506.24
2018-12-12T02:39:14.876Z,99507.70
2018-12-12T02:40:44.812Z,99514.59
2018-12-12T02:42:14.884Z,99517.66
2018-12-12T02:43:44.860Z,99516.03
2018-12-12T02:45:14.969Z,99517.83
2018-12-12T02:46:44.903Z,99514.77
2018-12-12T02:48:15.312Z,99516.03
2018-12-12T02:49:45.263Z,99511.67
2018-12-12T02:51:15.343Z,99511.33
2018-12-12T02:52:45.475Z,99506.45
2018-12-12T02:54:15.443Z,99510.80
2018-12-12T02:55:45.410Z,99504.64
2018-12-12T02:57:15.377Z,99504.64
2018-12-12T02:58:45.455Z,99507.53
2018-12-12T03:00:15.509Z,99503.91
2018-12-12T03:01:45.479Z,99504.27
2018-12-12T03:03:15.533Z,99492.84
2018-12-12T03:04:45.482Z,99494.33
2018-12-12T03:06:15.643Z,99490.86
2018-12-12T03:07:45.625Z,99492.69
2018-12-12T03:09:15.734Z,99486.35
2018-12-12T03:10:45.699Z,99490.68
2018-12-12T03:12:15.651Z,99488.32
2018-12-12T03:13:45.844Z,99488.32
2018-12-12T03:15:15.930Z,99487.97
2018-12-12T03:16:45.889Z,99488.16
2018-12-12T03:18:15.844Z,99485.44
2018-12-12T03:19:45.793Z,99484.55
2018-12-12T03:21:15.849Z,99485.45
2018-12-12T03:22:45.783Z,99482.17
2018-12-12T03:24:15.708Z,99483.82
2018-12-12T03:25:45.640Z,99489.98
2018-12-12T03:27:15.802Z,99484.91
2018-12-12T03:28:45.861Z,99495.92
2018-12-12T03:30:15.778Z,99495.74
2018-12-12T03:31:45.902Z,99492.86
2018-12-12T03:33:15.916Z,99490.85
2018-12-12T03:34:45.906Z,99488.88
2018-12-12T03:36:15.902Z,99491.42
2018-12-12T03:37:45.816Z,99495.77
2018-12-12T03:39:15.790Z,99494.33
2018-12-12T03:40:46.048Z,99494.11
2018-12-12T03:42:15.923Z,99492.84
2018-12-12T03:43:45.806Z,99487.45
2018-12-12T03:45:15.709Z,99493.73
2018-12-12T03:46:45.602Z,99498.06
2018-12-12T03:48:15.568Z,99492.64
2018-12-12T03:49:45.473Z,99499.88
2018-12-12T03:51:15.356Z,99495.35
2018-12-12T03:52:45.248Z,99496.05
2018-12-12T03:54:15.222Z,99499.88
2018-12-12T03:55:45.112Z,99502.22
2018-12-12T03:57:15.100Z,99497.31
2018-12-12T03:58:45.133Z,99498.73
2018-12-12T04:00:15.277Z,99497.81
2018-12-12T04:01:45.331Z,99500.36
2018-12-12T04:03:15.207Z,99499.28
2018-12-12T04:04:45.080Z,99497.30
2018-12-12T04:06:14.970Z,99499.98
2018-12-12T04:07:44.842Z,99498.72
2018-12-12T04:09:14.712Z,99503.08
2018-12-12T04:10:44.602Z,99503.06
2018-12-12T04:12:14.478Z,99508.33
2018-12-12T04:13:44.346Z,99504.53
2018-12-12T04:15:14.488Z,99503.45
2018-12-12T04:16:44.387Z,99495.64
2018-12-12T04:18:14.265Z,99498.55
2018-12-12T04:19:44.248Z,99500.50
2018-12-12T04:21:14.258Z,99499.57
2018-12-12T04:22:44.238Z,99500.13
2018-12-12T04:24:14.211Z,99502.09
2018-12-12T04:25:44.086Z,99499.92
2018-12-12T04:27:13.951Z,99498.28
2018-12-12T04:28:43.925Z,99509.61
2018-12-12T04:30:13.862Z,99510.31
2018-12-12T04:31:43.895Z,99509.41
2018-12-12T04:33:13.767Z,99506.15
2018-12-12T04:34:43.691Z,99505.62
2018-12-12T04:36:13.683Z,99504.36
2018-12-12T04:37:43.569Z,99503.98
2018-12-12T04:39:13.448Z,99507.22
2018-12-12T04:40:43.335Z,99502.16
2018-12-12T04:44:38.293Z,99498.67
2018-12-12T04:46:08.182Z,99504.45
2018-12-12T04:47:38.074Z,99499.56
2018-12-12T04:49:07.983Z,99496.50
2018-12-12T04:50:38.164Z,99502.78
2018-12-12T04:52:08.062Z,99496.43
2018-12-12T04:53:37.948Z,99495.53
2018-12-12T04:55:07.837Z,99499.48
2018-12-12T04:56:37.783Z,99494.92
2018-12-12T04:58:07.652Z,99497.41
2018-12-12T04:59:37.673Z,99498.14
2018-12-12T05:01:07.562Z,99496.88
2018-12-12T05:02:37.692Z,99498.14
2018-12-12T05:04:07.667Z,99501.73
2018-12-12T05:05:37.574Z,99503.00
2018-12-12T05:07:07.604Z,99507.22
2018-12-12T05:08:37.577Z,99515.60
2018-12-12T05:10:08.211Z,99514.75
2018-12-12T05:11:38.083Z,99515.55
2018-12-12T05:13:08.194Z,99512.33
2018-12-12T05:14:38.324Z,99519.02
2018-12-12T05:16:08.195Z,99519.34
2018-12-12T05:17:38.123Z,99514.85
2018-12-12T05:19:07.999Z,99522.80
2018-12-12T05:20:37.910Z,99522.64
2018-12-12T05:22:07.947Z,99522.08
2018-12-12T05:23:37.812Z,99526.59
2018-12-12T05:25:07.879Z,99523.28
2018-12-12T05:26:37.770Z,99521.27
2018-12-12T05:28:07.662Z,99518.33
2018-12-12T05:29:37.563Z,99514.17
2018-12-12T05:31:07.570Z,99513.80
2018-12-12T05:32:37.535Z,99520.95
2018-12-12T05:34:07.571Z,99520.58
2018-12-12T05:35:37.534Z,99522.31
2018-12-12T05:37:07.417Z,99520.89
2018-12-12T05:38:37.544Z,99524.84
2018-12-12T05:40:08.032Z,99527.50
2018-12-12T05:41:37.911Z,99527.30
2018-12-12T05:43:07.823Z,99525.12
2018-12-12T05:44:37.852Z,99527.30
2018-12-12T05:46:07.730Z,99528.78
2018-12-12T05:47:37.639Z,99529.20
2018-12-12T05:49:07.546Z,99526.84
2018-12-12T05:50:44.090Z,99529.21
2018-12-12T05:52:14.118Z,99529.58
2018-12-12T05:53:44.034Z,99530.47
2018-12-12T05:55:14.061Z,99533.00
2018-12-12T05:56:44.042Z,99530.09
2018-12-12T05:58:13.984Z,99534.94
2018-12-12T05:59:43.911Z,99537.81
2018-12-12T06:01:13.819Z,99533.30
2018-12-12T06:02:43.784Z,99535.61
2018-12-12T06:04:13.678Z,99531.59
2018-12-12T06:05:43.770Z,99532.84
2018-12-12T06:07:13.687Z,99537.02
2018-12-12T06:08:43.723Z,99536.22
2018-12-12T06:10:13.748Z,99539.31
2018-12-12T06:11:43.652Z,99540.27
2018-12-12T06:13:13.610Z,99540.95
2018-12-12T06:14:43.519Z,99547.91
2018-12-12T06:16:13.593Z,99539.07
2018-12-12T06:17:43.669Z,99539.98
2018-12-12T06:19:14.080Z,99542.36
2018-12-12T06:20:54.824Z,99541.16
2018-12-12T06:22:25.092Z,99541.22
2018-12-12T06:23:55.312Z,99542.58
2018-12-12T06:25:25.221Z,99545.70
2018-12-12T06:26:55.118Z,99541.59
2018-12-12T06:28:25.031Z,99541.81
2018-12-12T06:29:54.971Z,99538.55
2018-12-12T06:31:30.767Z,99540.18
2018-12-12T06:33:00.686Z,99542.39
2018-12-12T06:34:30.635Z,99539.54
2018-12-12T06:36:00.547Z,99543.17
2018-12-12T06:37:30.587Z,99535.23
2018-12-12T06:39:00.521Z,99541.91
2018-12-12T06:40:30.539Z,99544.80
2018-12-12T06:42:00.479Z,99546.11
2018-12-12T06:43:30.428Z,99549.38
2018-12-12T06:45:00.572Z,99549.59
2018-12-12T06:46:30.612Z,99546.74
2018-12-12T06:48:00.507Z,99546.42
2018-12-12T06:49:30.427Z,99548.58
2018-12-12T06:51:00.360Z,99549.15
2018-12-12T06:52:30.261Z,99552.25
2018-12-12T06:54:00.166Z,99554.05
2018-12-12T06:55:30.439Z,99558.05
2018-12-12T06:57:00.350Z,99555.52
2018-12-12T06:58:30.346Z,99559.15
2018-12-12T07:00:00.251Z,99554.30
2018-12-12T07:01:30.307Z,99559.19
2018-12-12T07:03:00.212Z,99557.96
2018-12-12T07:04:30.263Z,99556.70
2018-12-12T07:06:00.195Z,99553.11
2018-12-12T07:07:30.305Z,99551.84
2018-12-12T07:09:17.139Z,99553.67
2018-12-12T07:10:47.210Z,99560.33
2018-12-12T07:12:17.121Z,99558.00
2018-12-12T07:13:47.031Z,99560.20
2018-12-12T07:15:16.939Z,99558.41
2018-12-12T07:16:46.858Z,99561.30
2018-12-12T07:18:16.783Z,99559.14
2018-12-12T07:19:46.687Z,99562.56
2018-12-12T07:21:16.883Z,99555.51
2018-12-12T07:22:46.856Z,99560.37
2018-12-12T07:24:16.835Z,99558.73
2018-12-12T07:25:46.794Z,99557.27
2018-12-12T07:27:16.776Z,99557.10
2018-12-12T07:28:46.843Z,99569.38
2018-12-12T07:30:17.143Z,99555.88
2018-12-12T07:31:47.176Z,99562.93
2018-12-12T07:33:17.260Z,99559.70
2018-12-12T07:34:47.289Z,99560.44
2018-12-12T07:36:18.193Z,99562.59
2018-12-12T07:37:48.473Z,99560.44
2018-12-12T07:39:18.720Z,99561.37
2018-12-12T07:40:48.915Z,99566.09
2018-12-12T07:42:19.135Z,99565.36
2018-12-12T07:43:49.251Z,99564.83
2018-12-12T07:45:19.256Z,99560.53
2018-12-12T07:46:49.695Z,99567.42
2018-12-12T07:49:03.853Z,99561.28
2018-12-12T07:50:37.735Z,99567.61
2018-12-12T07:52:07.751Z,99572.88
2018-12-12T07:53:37.935Z,99569.27
2018-12-12T07:55:08.156Z,99570.37
2018-12-12T07:56:38.426Z,99571.83
2018-12-12T07:58:08.711Z,99570.39
2018-12-12T07:59:38.856Z,99568.95
2018-12-12T08:01:08.843Z,99568.56
2018-12-12T08:02:38.894Z,99568.37
2018-12-12T08:04:08.846Z,99572.90
2018-12-12T08:05:38.901Z,99564.23
2018-12-12T08:07:09.118Z,99568.39
2018-12-12T08:08:39.300Z,99564.63
2018-12-12T08:10:09.376Z,99567.69
2018-12-12T08:11:39.623Z,99572.04
2018-12-12T08:13:09.880Z,99566.63
2018-12-12T08:14:40.161Z,99569.71
2018-12-12T08:16:10.413Z,99569.55
2018-12-12T08:17:40.460Z,99571.70
2018-12-12T08:19:10.457Z,99565.75
2018-12-12T08:20:40.675Z,99570.48
2018-12-12T08:22:10.772Z,99575.22
2018-12-12T08:23:40.796Z,99572.69
2018-12-12T08:25:10.926Z,99571.97
2018-12-12T08:26:51.895Z,99575.77
2018-12-12T08:28:21.985Z,99572.14
2018-12-12T08:29:52.142Z,99576.14
2018-12-12T08:31:22.093Z,99572.88
2018-12-12T08:32:52.212Z,99568.53
2018-12-12T08:34:22.202Z,99563.47
2018-12-12T08:35:52.346Z,99566.55
2018-12-12T08:37:22.326Z,99566.17
2018-12-12T08:38:52.272Z,99567.28
2018-12-12T08:40:22.464Z,99560.40
2018-12-12T08:41:52.636Z,99556.77
2018-12-12T08:43:22.604Z,99554.24
2018-12-12T08:44:52.608Z,99564.36
2018-12-12T08:46:22.663Z,99556.95
2018-12-12T08:47:53.670Z,99562.38
2018-12-12T08:49:23.668Z,99562.55
2018-12-12T08:50:53.628Z,99562.70
2018-12-12T08:52:23.594Z,99565.43
2018-12-12T08:53:53.621Z,99559.10
2018-12-12T08:55:23.878Z,99558.89
2018-12-12T08:56:54.223Z,99558.87
2018-12-12T08:58:24.230Z,99562.14
2018-12-12T08:59:54.206Z,99558.52
2018-12-12T09:01:31.022Z,99558.35
2018-12-12T09:03:00.983Z,99561.41
2018-12-12T09:04:31.221Z,99562.69
2018-12-12T09:06:01.167Z,99562.48
2018-12-12T09:07:31.236Z,99557.78
2018-12-12T09:09:01.368Z,99555.93
2018-12-12T09:10:31.355Z,99555.91
2018-12-12T09:12:01.301Z,99560.61
2018-12-12T09:13:31.405Z,99556.81
2018-12-12T09:15:01.704Z,99564.77
2018-12-12T09:16:31.656Z,99564.23
2018-12-12T09:18:02.553Z,99554.08
2018-12-12T09:19:33.279Z,99554.42
2018-12-12T09:21:03.981Z,99559.50
2018-12-12T09:22:33.949Z,99565.48
2018-12-12T09:24:04.038Z,99565.63
2018-12-12T09:25:34.044Z,99564.55
2018-12-12T09:27:04.206Z,99569.29
2018-12-12T09:28:34.139Z,99574.36
2018-12-12T09:30:05.141Z,99577.25
2018-12-12T09:31:35.122Z,99573.63
2018-12-12T09:33:05.023Z,99572.38
2018-12-12T09:34:37.340Z,99568.73
2018-12-12T09:36:07.206Z,99573.94
2018-12-12T09:37:37.078Z,99570.09
2018-12-12T09:39:07.685Z,99569.67
2018-12-12T09:40:38.071Z,99574.53
2018-12-12T09:42:07.947Z,99569.41
2018-12-12T09:43:37.840Z,99573.17
2018-12-12T09:45:07.743Z,99570.11
2018-12-12T09:46:37.730Z,99577.73
2018-12-12T09:48:07.605Z,99569.59
2018-12-12T09:49:37.677Z,99571.95
2018-12-12T09:51:07.657Z,99570.58
2018-12-12T09:52:37.650Z,99573.15
2018-12-12T09:54:09.422Z,99571.88
2018-12-12T09:55:40.376Z,99573.48
2018-12-12T09:57:10.532Z,99567.70
2018-12-12T09:58:40.483Z,99574.23
2018-12-12T10:00:10.607Z,99568.97
2018-12-12T10:01:40.551Z,99566.58
2018-12-12T10:03:10.502Z,99571.43
2018-12-12T10:04:40.433Z,99567.23
2018-12-12T10:06:10.354Z,99564.17
2018-12-12T10:07:40.308Z,99570.53
2018-12-12T10:09:10.234Z,99570.91
2018-12-12T10:10:40.160Z,99562.86
2018-12-12T10:12:10.167Z,99563.89
2018-12-12T10:13:40.199Z,99569.27
2018-12-12T10:15:31.218Z,99567.66
2018-12-12T10:17:01.260Z,99566.91
2018-12-12T10:18:31.296Z,99563.27
2018-12-12T10:20:01.335Z,99566.23
2018-12-12T10:21:31.248Z,99569.22
2018-12-12T10:23:01.381Z,99566.17
2018-12-12T10:24:31.348Z,99565.32
2018-12-12T10:26:01.307Z,99557.36
2018-12-12T10:27:31.270Z,99558.52
2018-12-12T10:29:01.545Z,99557.92
2018-12-12T10:30:31.487Z,99556.42
2018-12-12T10:32:01.503Z,99557.05
2018-12-12T10:33:37.426Z,99554.72
2018-12-12T10:35:03.762Z,99555.78
2018-12-12T10:36:33.743Z,99549.09
2018-12-12T10:38:03.791Z,99549.84
2018-12-12T10:39:33.721Z,99547.52
2018-12-12T10:41:03.668Z,99545.20
2018-12-12T10:42:33.716Z,99542.23
2018-12-12T10:44:03.970Z,99544.09
2018-12-12T10:45:33.912Z,99539.02
2018-12-12T10:47:03.980Z,99537.20
2018-12-12T10:48:34.087Z,99540.48
2018-12-12T10:50:05.724Z,99537.28
2018-12-12T10:51:35.859Z,99537.41
2018-12-12T10:53:05.904Z,99539.00
2018-12-12T10:54:44.667Z,99533.88
2018-12-12T10:56:14.916Z,99529.66
2018-12-12T10:57:44.914Z,99533.06
2018-12-12T10:59:15.720Z,99528.52
2018-12-12T11:00:55.034Z,99524.91
2018-12-12T11:02:32.077Z,99522.53
2018-12-12T11:04:02.092Z,99519.39
2018-12-12T11:05:32.081Z,99515.22
2018-12-12T11:07:02.136Z,99520.98
2018-12-12T11:08:32.145Z,99516.20
2018-12-12T11:10:02.084Z,99516.86
2018-12-12T11:11:32.216Z,99516.44
2018-12-12T11:13:04.189Z,99511.48
2018-12-12T11:14:34.131Z,99516.37
2018-12-12T11:16:05.200Z,99518.05
2018-12-12T11:17:35.611Z,99519.32
2018-12-12T11:19:05.743Z,99514.14
2018-12-12T11:20:35.890Z,99511.39
2018-12-12T11:22:06.062Z,99511.19
2018-12-12T11:23:36.026Z,99508.44
2018-12-12T11:25:09.350Z,99505.20
2018-12-12T11:26:39.338Z,99497.06
2018-12-12T11:28:09.317Z,99502.06
2018-12-12T11:29:39.391Z,99494.89
2018-12-12T11:31:10.013Z,99491.02
2018-12-12T11:32:39.928Z,99490.49
2018-12-12T11:34:09.950Z,99489.44
2018-12-12T11:35:39.963Z,99485.72
2018-12-12T11:37:09.907Z,99488.44
2018-12-12T11:38:39.847Z,99487.96
2018-12-12T11:40:09.923Z,99482.73
2018-12-12T11:41:39.852Z,99485.38
2018-12-12T11:43:09.919Z,99484.51
2018-12-12T11:44:39.967Z,99485.53
2018-12-12T11:46:09.973Z,99481.33
2018-12-12T11:47:40.018Z,99480.86
2018-12-12T11:49:09.958Z,99478.69
2018-12-12T11:50:40.077Z,99480.27
2018-12-12T11:53:47.457Z,99469.88
2018-12-12T11:55:17.403Z,99471.15
2018-12-12T11:56:47.348Z,99472.70
2018-12-12T11:58:17.315Z,99472.94
2018-12-12T11:59:47.376Z,99474.90
2018-12-12T12:01:17.483Z,99468.43
2018-12-12T12:02:58.031Z,99469.90
2018-12-12T12:04:27.975Z,99471.88
2018-12-12T12:05:57.935Z,99465.13
2018-12-12T12:07:27.895Z,99465.30
2018-12-12T12:08:57.870Z,99464.12
2018-12-12T12:10:27.972Z,99461.24
2018-12-12T12:11:57.972Z,99463.66
2018-12-12T12:13:27.952Z,99461.66
2018-12-12T12:14:57.896Z,99455.80
2018-12-12T12:16:27.858Z,99459.97
2018-12-12T12:17:57.764Z,99461.16
2018-12-12T12:19:27.832Z,99458.13
2018-12-12T12:20:58.033Z,99459.02
2018-12-12T12:22:28.255Z,99452.81
2018-12-12T12:23:58.361Z,99452.45
2018-12-12T12:25:28.421Z,99453.25
2018-12-12T12:26:58.471Z,99447.74
2018-12-12T12:28:28.485Z,99447.05
2018-12-12T12:29:58.693Z,99447.56
2018-12-12T12:31:29.620Z,99447.95
2018-12-12T12:32:59.940Z,99445.09
2018-12-12T12:34:29.925Z,99440.31
2018-12-12T12:36:00.360Z,99435.83
2018-12-12T12:37:30.447Z,99433.28
2018-12-12T12:39:00.610Z,99435.33
2018-12-12T12:40:30.633Z,99432.02
2018-12-12T12:42:00.677Z,99438.52
2018-12-12T12:43:30.914Z,99432.14
2018-12-12T12:45:00.865Z,99426.83
2018-12-12T12:46:30.966Z,99430.10
2018-12-12T12:48:00.972Z,99429.16
2018-12-12T12:51:55.018Z,99428.84
2018-12-12T12:53:25.152Z,99420.04
2018-12-12T12:54:55.242Z,99423.86
2018-12-12T12:56:25.374Z,99417.45
2018-12-12T12:57:55.569Z,99413.13
2018-12-12T12:59:25.469Z,99410.03
2018-12-12T13:00:55.484Z,99416.50
2018-12-12T13:02:25.651Z,99414.28
2018-12-12T13:04:02.967Z,99415.97
2018-12-12T13:05:32.842Z,99416.59
2018-12-12T13:07:02.766Z,99411.08
2018-12-12T13:08:32.718Z,99413.42
2018-12-12T13:10:03.306Z,99412.28
2018-12-12T13:11:33.474Z,99409.64
2018-12-12T13:13:04.197Z,99414.41
2018-12-12T13:14:34.233Z,99403.62
2018-12-12T13:16:04.345Z,99416.71
2018-12-12T13:17:34.349Z,99407.16
2018-12-12T13:19:04.365Z,99412.89
2018-12-12T13:20:35.076Z,99409.61
2018-12-12T13:22:06.797Z,99410.00
2018-12-12T13:23:42.672Z,99411.70
2018-12-12T13:27:43.789Z,99414.83
2018-12-12T13:29:18.550Z,99417.70
2018-12-12T13:30:50.421Z,99415.02
2018-12-12T13:32:21.623Z,99411.43
2018-12-12T13:33:54.042Z,99411.84
2018-12-12T13:35:27.144Z,99408.58
2018-12-12T13:37:03.450Z,99410.88
2018-12-12T13:38:40.935Z,99410.22
2018-12-12T13:40:17.034Z,99406.63
2018-12-12T13:41:49.564Z,99405.53
2018-12-12T13:43:20.002Z,99401.19
2018-12-12T13:44:52.018Z,99401.50
2018-12-12T13:46:24.351Z,99399.42
2018-12-12T13:47:56.181Z,99397.52
2018-12-12T13:49:28.437Z,99392.39
2018-12-12T13:51:00.219Z,99393.83
2018-12-12T13:52:32.547Z,99390.48
2018-12-12T13:54:03.524Z,99391.34
2018-12-12T13:55:33.462Z,99393.80
2018-12-12T13:57:03.774Z,99396.14
2018-12-12T13:58:33.994Z,99397.25
2018-12-12T14:00:04.694Z,99394.98
2018-12-12T14:01:34.730Z,99391.05
2018-12-12T14:03:04.805Z,99389.30
2018-12-12T14:04:34.772Z,99393.29
2018-12-12T14:06:04.717Z,99391.26
2018-12-12T14:07:34.660Z,99395.59
2018-12-12T14:09:06.032Z,99394.97
2018-12-12T14:10:36.324Z,99397.66
2018-12-12T14:12:06.316Z,99391.37
2018-12-12T14:13:36.303Z,99395.14
2018-12-12T14:15:06.536Z,99395.45
2018-12-12T14:16:36.551Z,99395.30
2018-12-12T14:18:06.531Z,99394.06
2018-12-12T14:19:36.533Z,99395.13
2018-12-12T14:21:06.588Z,99393.75
2018-12-12T14:22:36.926Z,99391.92
2018-12-12T14:24:06.912Z,99385.14
2018-12-12T14:25:37.042Z,99395.31
2018-12-12T14:27:07.312Z,99388.20
2018-12-12T14:28:37.457Z,99395.05
2018-12-12T14:30:08.452Z,99395.72
2018-12-12T14:31:38.515Z,99392.45
2018-12-12T14:33:08.552Z,99387.67
2018-12-12T14:34:38.656Z,99388.98
2018-12-12T14:36:09.043Z,99393.52
2018-12-12T14:37:39.332Z,99391.59
2018-12-12T14:39:18.145Z,99389.23
2018-12-12T14:41:03.268Z,99387.66
2018-12-12T14:42:33.318Z,99386.77
2018-12-12T14:44:03.481Z,99385.89
2018-12-12T14:45:34.477Z,99384.89
2018-12-12T14:47:04.804Z,99385.84
2018-12-12T14:48:35.090Z,99388.58
2018-12-12T14:50:05.243Z,99387.70
2018-12-12T14:51:35.235Z,99388.47
2018-12-12T14:53:05.424Z,99392.53
2018-12-12T14:54:50.999Z,99391.20
2018-12-12T14:58:45.424Z,99400.09
2018-12-12T15:00:15.654Z,99404.67
2018-12-12T15:01:46.100Z,99403.44
2018-12-12T15:03:16.047Z,99404.06
2018-12-12T15:04:46.267Z,99404.45
2018-12-12T15:06:17.259Z,99410.98
2018-12-12T15:07:47.290Z,99411.02
2018-12-12T15:09:17.453Z,99415.95
2018-12-12T15:10:47.599Z,99415.63
2018-12-12T15:12:17.712Z,99415.25
2018-12-12T15:13:47.870Z,99422.53
2018-12-12T15:15:18.288Z,99414.77
2018-12-12T15:16:48.272Z,99421.48
2018-12-12T15:18:18.419Z,99417.56
2018-12-12T15:19:48.762Z,99419.08
2018-12-12T15:21:18.726Z,99420.34
2018-12-12T15:22:59.389Z,99415.08
2018-12-12T15:24:29.522Z,99419.63
2018-12-12T15:25:59.540Z,99418.77
2018-12-12T15:27:29.588Z,99416.98
2018-12-12T15:29:00.531Z,99412.08
2018-12-12T15:31:08.711Z,99411.14
2018-12-12T15:32:38.831Z,99413.16
2018-12-12T15:34:08.801Z,99415.51
2018-12-12T15:35:39.889Z,99413.50
2018-12-12T15:37:09.837Z,99412.59
2018-12-12T15:38:39.763Z,99416.03
2018-12-12T15:40:11.503Z,99417.53
2018-12-12T15:42:10.875Z,99412.80
2018-12-12T15:43:40.941Z,99414.80
2018-12-12T15:47:35.354Z,99406.16
2018-12-12T15:49:05.432Z,99411.05
2018-12-12T15:50:35.345Z,99413.39
2018-12-12T15:52:05.712Z,99411.95
2018-12-12T15:53:35.760Z,99408.72
2018-12-12T15:55:06.108Z,99408.70
2018-12-12T15:56:38.217Z,99412.87
2018-12-12T15:58:08.149Z,99412.34
2018-12-12T15:59:38.424Z,99410.53
2018-12-12T16:01:08.310Z,99412.34
2018-12-12T16:02:38.199Z,99412.34
2018-12-12T16:04:08.155Z,99415.05
2018-12-12T16:05:38.198Z,99415.97
2018-12-12T16:07:08.256Z,99413.61
2018-12-12T16:08:38.155Z,99410.16
2018-12-12T16:10:08.392Z,99407.10
2018-12-12T16:11:38.418Z,99410.34
2018-12-12T16:13:08.640Z,99408.53
2018-12-12T16:14:38.679Z,99409.46
2018-12-12T16:16:09.000Z,99408.37
2018-12-12T16:17:38.991Z,99407.45
2018-12-12T16:19:09.011Z,99410.36
2018-12-12T16:20:39.014Z,99411.61
2018-12-12T16:22:09.013Z,99410.34
2018-12-12T16:23:39.029Z,99412.15
2018-12-12T16:25:09.081Z,99411.61
2018-12-12T16:26:38.989Z,99409.79
2018-12-12T16:28:08.871Z,99412.89
2018-12-12T16:29:38.833Z,99410.34
2018-12-12T16:31:09.055Z,99408.91
2018-12-12T16:32:39.102Z,99407.63
2018-12-12T16:34:09.259Z,99405.83
2018-12-12T16:35:39.202Z,99409.06
2018-12-12T16:37:09.116Z,99408.88
2018-12-12T16:38:39.013Z,99407.27
2018-12-12T16:40:46.975Z,99402.72
2018-12-12T16:42:29.827Z,99409.03
2018-12-12T16:43:59.718Z,99413.67
2018-12-12T16:45:29.663Z,99419.28
2018-12-12T16:46:59.675Z,99415.63
2018-12-12T16:48:29.595Z,99412.16
2018-12-12T16:49:59.932Z,99412.13
2018-12-12T16:51:29.847Z,99413.77
2018-12-12T16:52:59.951Z,99414.16
2018-12-12T16:54:30.015Z,99410.91
2018-12-12T16:56:00.104Z,99409.34
2018-12-12T16:57:30.062Z,99408.08
2018-12-12T16:58:59.951Z,99406.81
2018-12-12T17:00:29.898Z,99405.38
2018-12-12T17:02:00.058Z,99405.00
2018-12-12T17:03:29.988Z,99408.45
2018-12-12T17:05:02.373Z,99403.00
2018-12-12T17:06:31.859Z,99402.69
2018-12-12T17:08:01.760Z,99405.94
2018-12-12T17:09:31.749Z,99409.41
2018-12-12T17:11:01.709Z,99409.58
2018-12-12T17:12:31.608Z,99409.80
2018-12-12T17:14:01.521Z,99409.41
2018-12-12T17:15:31.832Z,99407.45
2018-12-12T17:17:39.852Z,99411.24
2018-12-12T17:19:09.746Z,99408.71
2018-12-12T17:20:39.808Z,99401.47
2018-12-12T17:22:09.764Z,99408.52
2018-12-12T17:23:39.843Z,99405.29
2018-12-12T17:25:09.795Z,99401.83
2018-12-12T17:26:39.702Z,99409.42
2018-12-12T17:28:09.613Z,99410.17
2018-12-12T17:29:39.671Z,99409.61
2018-12-12T17:31:09.638Z,99407.45
2018-12-12T17:32:39.527Z,99407.98
2018-12-12T17:34:09.425Z,99406.71
2018-12-12T17:35:39.413Z,99411.05
2018-12-12T17:37:16.112Z,99407.27
2018-12-12T17:38:46.112Z,99407.10
2018-12-12T17:40:16.236Z,99402.20
2018-12-12T17:41:46.147Z,99401.86
2018-12-12T17:43:16.159Z,99404.55
2018-12-12T17:44:46.195Z,99408.72
2018-12-12T17:46:16.143Z,99404.19
2018-12-12T17:47:46.019Z,99404.01
2018-12-12T17:49:16.019Z,99403.48
2018-12-12T17:50:46.334Z,99395.32
2018-12-12T17:52:16.278Z,99398.06
2018-12-12T17:53:46.164Z,99399.33
2018-12-12T17:55:16.130Z,99402.76
2018-12-12T17:56:46.011Z,99398.78
2018-12-12T17:58:16.115Z,99403.83
2018-12-12T17:59:46.130Z,99408.73
2018-12-12T18:01:16.317Z,99405.64